createdAt,value
2022-12-19T00:01:32.272Z,40.53
2022-12-19T00:04:00.016Z,40.53
2022-12-19T00:06:27.741Z,45.72
2022-12-19T00:08:54.851Z,37.90
2022-12-19T00:11:22.529Z,39.15
2022-12-19T00:13:49.147Z,28.67
2022-12-19T00:16:17.686Z,48.55
2022-12-19T00:18:46.297Z,45.55
2022-12-19T00:21:17.259Z,28.73
2022-12-19T00:23:44.138Z,29.73
2022-12-19T00:26:15.106Z,43.13
2022-12-19T00:28:42.655Z,31.33
2022-12-19T00:31:09.383Z,31.88
2022-12-19T00:33:35.987Z,32.97
2022-12-19T00:36:07.263Z,39.65
2022-12-19T00:38:34.120Z,30.70
2022-12-19T00:41:11.549Z,23.15
2022-12-19T00:43:38.649Z,26.88
2022-12-19T00:46:06.328Z,31.90
2022-12-19T00:48:36.834Z,32.58
2022-12-19T00:51:04.428Z,29.70
2022-12-19T00:53:33.956Z,39.53
2022-12-19T00:56:08.095Z,43.08
2022-12-19T00:58:35.746Z,61.13
2022-12-19T01:01:10.054Z,41.63
2022-12-19T01:03:36.721Z,47.30
2022-12-19T01:06:04.054Z,28.30
2022-12-19T01:08:31.222Z,46.80
2022-12-19T01:10:57.969Z,46.15
2022-12-19T01:13:25.111Z,52.85
2022-12-19T01:15:51.810Z,40.22
2022-12-19T01:18:18.416Z,31.35
2022-12-19T01:20:47.446Z,29.73
2022-12-19T01:23:15.641Z,52.08
2022-12-19T01:25:45.251Z,24.50
2022-12-19T01:28:14.182Z,54.40
2022-12-19T01:30:42.828Z,43.33
2022-12-19T01:33:13.820Z,47.67
2022-12-19T01:35:49.624Z,36.53
2022-12-19T01:38:20.114Z,32.95
2022-12-19T01:40:50.634Z,32.78
2022-12-19T01:43:19.609Z,21.00
2022-12-19T01:45:50.370Z,43.03
2022-12-19T01:48:20.950Z,32.38
2022-12-19T01:51:00.969Z,31.15
2022-12-19T01:53:34.706Z,59.67
2022-12-19T01:56:08.066Z,24.15
2022-12-19T01:58:35.080Z,36.13
2022-12-19T02:01:02.345Z,26.20
2022-12-19T02:03:29.634Z,38.42
2022-12-19T02:05:57.665Z,32.58
2022-12-19T02:08:24.769Z,32.10
2022-12-19T02:10:51.904Z,18.88
2022-12-19T02:13:18.705Z,44.85
2022-12-19T02:15:53.706Z,33.20
2022-12-19T02:18:26.829Z,31.30
2022-12-19T02:21:02.853Z,25.50
2022-12-19T02:23:47.106Z,50.38
2022-12-19T02:26:21.744Z,41.13
2022-12-19T02:28:55.667Z,27.00
2022-12-19T02:31:29.354Z,23.10
2022-12-19T02:33:59.788Z,38.88
2022-12-19T02:36:41.944Z,36.25
2022-12-19T02:39:14.337Z,44.45
2022-12-19T02:41:46.414Z,31.45
2022-12-19T02:44:22.452Z,35.55
2022-12-19T02:46:50.524Z,43.03
2022-12-19T02:49:24.188Z,21.70
2022-12-19T02:51:57.852Z,32.03
2022-12-19T02:54:24.945Z,34.05
2022-12-19T02:56:55.326Z,37.45
2022-12-19T02:59:36.920Z,33.30
2022-12-19T03:02:22.236Z,55.22
2022-12-19T03:04:57.679Z,51.45
2022-12-19T03:07:33.528Z,38.47
2022-12-19T03:10:09.429Z,43.25
2022-12-19T03:12:45.358Z,41.75
2022-12-19T03:15:12.693Z,39.53
2022-12-19T03:17:39.784Z,37.03
2022-12-19T03:20:15.045Z,61.27
2022-12-19T03:22:41.723Z,60.13
2022-12-19T03:25:08.631Z,45.38
2022-12-19T03:27:37.428Z,48.47
2022-12-19T03:30:06.575Z,35.78
2022-12-19T03:32:34.687Z,54.28
2022-12-19T03:35:07.324Z,46.97
2022-12-19T03:37:37.331Z,57.33
2022-12-19T03:40:08.499Z,40.35
2022-12-19T03:42:54.316Z,53.80
2022-12-19T03:45:23.908Z,53.75
2022-12-19T03:47:52.539Z,41.28
2022-12-19T03:50:22.390Z,39.90
2022-12-19T03:53:08.569Z,39.72
2022-12-19T03:55:44.084Z,61.03
2022-12-19T03:58:13.497Z,46.08
2022-12-19T04:00:42.431Z,62.13
2022-12-19T04:03:10.201Z,55.80
2022-12-19T04:05:38.671Z,35.05
2022-12-19T04:08:07.044Z,23.20
2022-12-19T04:10:36.979Z,65.65
2022-12-19T04:13:06.030Z,53.15
2022-12-19T04:15:50.276Z,61.85
2022-12-19T04:18:18.441Z,53.22
2022-12-19T04:20:47.841Z,86.53
2022-12-19T04:23:34.414Z,68.57
2022-12-19T04:26:03.334Z,84.00
2022-12-19T04:28:36.375Z,61.67
2022-12-19T04:31:04.567Z,72.87
2022-12-19T04:33:31.450Z,54.65
2022-12-19T04:35:58.132Z,55.97
2022-12-19T04:38:24.718Z,74.78
2022-12-19T04:40:51.238Z,66.93
2022-12-19T04:43:17.778Z,38.38
2022-12-19T04:45:48.999Z,38.00
2022-12-19T04:48:18.221Z,31.03
2022-12-19T04:50:54.994Z,51.43
2022-12-19T04:53:21.552Z,27.13
2022-12-19T04:55:48.558Z,33.03
2022-12-19T04:58:20.238Z,25.60
2022-12-19T05:00:48.492Z,30.30
2022-12-19T05:03:32.520Z,24.57
2022-12-19T05:06:06.449Z,22.93
2022-12-19T05:08:33.506Z,27.10
2022-12-19T05:11:01.021Z,23.50
2022-12-19T05:13:28.153Z,18.80
2022-12-19T05:15:58.705Z,21.87
2022-12-19T05:18:25.419Z,18.67
2022-12-19T05:20:52.336Z,24.17
2022-12-19T05:23:19.604Z,24.63
2022-12-19T05:25:46.336Z,16.30
2022-12-19T05:28:36.171Z,19.03
2022-12-19T05:31:23.405Z,21.50
2022-12-19T05:33:50.121Z,22.90
2022-12-19T05:36:17.285Z,17.33
2022-12-19T05:38:44.077Z,16.00
2022-12-19T05:41:12.048Z,12.13
2022-12-19T05:43:38.616Z,17.20
2022-12-19T05:46:05.977Z,19.63
2022-12-19T05:48:32.950Z,32.70
2022-12-19T05:50:59.600Z,22.93
2022-12-19T05:53:28.081Z,14.17
2022-12-19T05:56:04.573Z,5.73
2022-12-19T05:58:31.483Z,6.80
2022-12-19T06:01:02.763Z,7.17
2022-12-19T06:03:29.359Z,7.60
2022-12-19T06:05:56.689Z,8.37
2022-12-19T06:08:23.328Z,5.77
2022-12-19T06:10:50.572Z,8.97
2022-12-19T06:13:38.694Z,5.17
2022-12-19T06:16:07.173Z,7.87
2022-12-19T06:18:33.761Z,3.20
2022-12-19T06:21:02.321Z,3.30
2022-12-19T06:23:29.448Z,7.80
2022-12-19T06:30:15.138Z,5.73
2022-12-19T06:32:42.013Z,7.33
2022-12-19T06:35:08.957Z,6.73
2022-12-19T06:37:37.863Z,7.50
2022-12-19T06:40:06.447Z,4.50
2022-12-19T06:42:33.017Z,9.30
2022-12-19T06:44:59.703Z,4.90
2022-12-19T06:47:26.242Z,8.83
2022-12-19T06:49:53.187Z,6.93
2022-12-19T06:52:19.927Z,9.63
2022-12-19T06:54:46.583Z,8.37
2022-12-19T06:57:13.217Z,5.77
2022-12-19T06:59:39.881Z,7.80
2022-12-19T07:02:13.236Z,9.13
2022-12-19T07:04:45.423Z,9.30
2022-12-19T07:07:12.009Z,7.53
2022-12-19T07:09:38.522Z,18.40
2022-12-19T07:12:08.199Z,15.40
2022-12-19T07:14:34.872Z,11.03
2022-12-19T07:17:02.691Z,6.73
2022-12-19T07:19:30.763Z,7.90
2022-12-19T07:21:58.480Z,10.47
2022-12-19T07:24:30.742Z,14.00
2022-12-19T07:26:57.660Z,27.13
2022-12-19T07:29:24.335Z,12.50
2022-12-19T07:31:50.908Z,12.17
2022-12-19T07:34:17.569Z,10.23
2022-12-19T07:36:44.179Z,17.03
2022-12-19T07:39:10.801Z,7.97
2022-12-19T07:41:38.341Z,9.93
2022-12-19T07:44:05.551Z,15.93
2022-12-19T07:46:32.166Z,8.80
2022-12-19T07:48:58.890Z,10.80
2022-12-19T07:51:26.247Z,11.50
2022-12-19T07:53:52.857Z,8.70
2022-12-19T07:56:22.020Z,6.83
2022-12-19T07:58:48.931Z,10.90
2022-12-19T08:01:15.785Z,12.67
2022-12-19T08:03:42.654Z,6.53
2022-12-19T08:06:09.787Z,11.90
2022-12-19T08:08:37.899Z,9.87
2022-12-19T08:11:31.363Z,8.10
2022-12-19T08:13:58.333Z,7.00
2022-12-19T08:16:26.824Z,12.70
2022-12-19T08:18:53.631Z,10.57
2022-12-19T08:21:20.741Z,10.73
2022-12-19T08:23:47.294Z,12.83
2022-12-19T08:26:15.770Z,12.47
2022-12-19T08:28:43.377Z,13.87
2022-12-19T08:31:14.778Z,13.27
2022-12-19T08:33:41.704Z,12.00
2022-12-19T08:36:10.003Z,6.90
2022-12-19T08:38:39.643Z,11.73
2022-12-19T08:41:11.085Z,18.53
2022-12-19T08:43:41.603Z,12.40
2022-12-19T08:46:33.284Z,16.97
2022-12-19T08:49:12.371Z,5.90
2022-12-19T08:51:40.551Z,14.00
2022-12-19T08:54:11.635Z,12.30
2022-12-19T08:56:42.251Z,13.03
2022-12-19T08:59:25.636Z,8.23
2022-12-19T09:02:06.464Z,12.33
2022-12-19T09:05:57.790Z,9.67
2022-12-19T09:07:23.101Z,6.80
2022-12-19T09:12:36.118Z,10.17
2022-12-19T09:15:04.720Z,9.73
2022-12-19T09:17:34.684Z,5.93
2022-12-19T09:20:01.334Z,6.33
2022-12-19T09:22:29.550Z,7.67
2022-12-19T09:24:56.326Z,8.93
2022-12-19T09:27:23.359Z,13.00
2022-12-19T09:29:50.681Z,9.77
2022-12-19T09:32:17.386Z,9.40
2022-12-19T09:34:43.968Z,7.83
2022-12-19T09:37:16.097Z,11.13
2022-12-19T09:39:45.290Z,10.90
2022-12-19T09:42:30.820Z,6.97
2022-12-19T09:45:08.421Z,8.40
2022-12-19T09:47:38.213Z,14.13
2022-12-19T09:50:08.853Z,8.37
2022-12-19T09:52:39.190Z,11.20
2022-12-19T09:55:16.743Z,9.50
2022-12-19T09:57:56.178Z,3.97
2022-12-19T10:00:23.473Z,5.80
2022-12-19T10:02:54.198Z,5.03
2022-12-19T10:06:00.350Z,3.30
2022-12-19T10:08:32.142Z,5.90
2022-12-19T10:12:38.272Z,9.30
2022-12-19T10:13:57.292Z,4.10
2022-12-19T10:16:31.310Z,5.33
2022-12-19T10:19:01.662Z,8.27
2022-12-19T10:21:58.851Z,5.10
2022-12-19T10:24:26.711Z,6.90
2022-12-19T10:27:05.357Z,5.20
2022-12-19T10:29:41.674Z,6.00
2022-12-19T10:32:17.444Z,4.70
2022-12-19T10:34:45.044Z,5.23
2022-12-19T10:37:30.830Z,10.30
2022-12-19T10:40:27.448Z,2.30
2022-12-19T10:43:13.400Z,10.27
2022-12-19T10:45:51.407Z,4.80
2022-12-19T10:48:19.727Z,4.63
2022-12-19T10:50:49.383Z,8.10
2022-12-19T10:53:16.368Z,5.53
2022-12-19T10:55:46.021Z,2.50
2022-12-19T10:58:12.503Z,4.57
2022-12-19T11:00:46.035Z,6.20
2022-12-19T11:03:16.817Z,4.80
2022-12-19T11:05:52.632Z,5.47
2022-12-19T11:08:28.648Z,6.43
2022-12-19T11:13:21.903Z,5.63
2022-12-19T11:19:13.330Z,3.27
2022-12-19T11:23:00.681Z,3.37
2022-12-19T11:29:35.109Z,6.53
2022-12-19T11:29:40.720Z,4.10
2022-12-19T11:30:09.735Z,4.70
2022-12-19T11:30:48.853Z,3.33
2022-12-19T11:34:01.574Z,3.20
2022-12-19T11:36:47.064Z,3.10
2022-12-19T11:39:20.327Z,2.63
2022-12-19T11:42:08.394Z,4.33
2022-12-19T11:44:47.495Z,5.00
2022-12-19T11:47:20.255Z,4.77
2022-12-19T11:49:59.469Z,6.67
2022-12-19T11:55:21.563Z,4.47
2022-12-19T11:57:48.407Z,3.03
2022-12-19T12:00:17.508Z,4.40
2022-12-19T12:03:03.045Z,4.10
2022-12-19T12:05:39.538Z,3.57
2022-12-19T12:10:07.612Z,5.13
2022-12-19T12:16:11.644Z,4.43
2022-12-19T12:25:20.051Z,4.43
2022-12-19T12:28:26.517Z,4.27
2022-12-19T12:31:21.107Z,5.70
2022-12-19T12:31:21.672Z,2.40
2022-12-19T12:31:50.060Z,4.17
2022-12-19T12:31:50.447Z,5.17
2022-12-19T12:35:56.637Z,2.50
2022-12-19T12:40:35.138Z,5.40
2022-12-19T12:43:01.668Z,3.23
2022-12-19T12:45:36.859Z,4.87
2022-12-19T12:48:03.591Z,2.73
2022-12-19T12:50:31.010Z,3.20
2022-12-19T12:53:02.709Z,2.33
2022-12-19T12:55:40.144Z,2.80
2022-12-19T12:58:26.928Z,3.70
2022-12-19T13:01:15.016Z,3.53
2022-12-19T13:03:42.653Z,6.57
2022-12-19T13:06:24.629Z,3.07
2022-12-19T13:08:53.722Z,1.90
2022-12-19T13:11:40.473Z,2.70
2022-12-19T13:14:27.142Z,3.87
2022-12-19T13:16:54.239Z,2.90
2022-12-19T13:19:27.524Z,3.87
2022-12-19T13:22:04.393Z,1.70
2022-12-19T13:24:48.236Z,3.60
2022-12-19T13:27:21.222Z,2.73
2022-12-19T13:29:54.431Z,1.67
2022-12-19T13:32:22.256Z,1.57
2022-12-19T13:36:01.679Z,2.17
2022-12-19T13:39:56.904Z,4.60
2022-12-19T13:40:34.247Z,3.70
2022-12-19T13:43:39.850Z,3.70
2022-12-19T13:46:18.281Z,3.07
2022-12-19T13:48:46.554Z,2.57
2022-12-19T13:51:13.905Z,2.90
2022-12-19T13:53:41.678Z,5.17
2022-12-19T13:56:18.344Z,6.20
2022-12-19T13:58:54.346Z,6.03
2022-12-19T14:01:29.056Z,2.40
2022-12-19T14:03:57.773Z,3.67
2022-12-19T14:06:42.176Z,2.17
2022-12-19T14:11:26.174Z,3.57
2022-12-19T14:13:40.424Z,2.30
2022-12-19T14:15:14.262Z,4.47
2022-12-19T14:17:41.453Z,1.83
2022-12-19T14:21:39.653Z,3.93
2022-12-19T14:23:04.577Z,2.60
2022-12-19T14:28:14.890Z,3.23
2022-12-19T14:28:30.210Z,3.13
2022-12-19T14:31:00.679Z,4.97
2022-12-19T14:33:47.268Z,8.60
2022-12-19T14:36:26.585Z,2.83
2022-12-19T14:39:26.611Z,4.60
2022-12-19T14:42:04.056Z,6.30
2022-12-19T14:54:00.623Z,6.80
2022-12-19T14:54:03.377Z,8.23
2022-12-19T14:54:13.004Z,6.83
2022-12-19T14:54:55.284Z,5.20
2022-12-19T14:59:03.311Z,5.63
2022-12-19T15:01:32.200Z,7.80
2022-12-19T15:04:52.890Z,15.40
2022-12-19T15:07:08.032Z,4.13
2022-12-19T15:11:04.090Z,3.37
2022-12-19T15:14:52.117Z,4.70
2022-12-19T15:15:56.527Z,7.20
2022-12-19T15:18:23.251Z,5.07
2022-12-19T15:20:55.942Z,6.40
2022-12-19T15:23:23.086Z,12.47
2022-12-19T15:26:07.264Z,14.83
2022-12-19T15:28:40.192Z,8.77
2022-12-19T15:31:10.837Z,18.00
2022-12-19T15:33:48.025Z,13.60
2022-12-19T15:36:24.154Z,3.87
2022-12-19T15:38:50.822Z,2.60
2022-12-19T15:41:21.445Z,4.73
2022-12-19T15:44:05.134Z,2.67
2022-12-19T15:46:32.662Z,2.10
2022-12-19T15:48:59.414Z,2.20
2022-12-19T15:51:26.000Z,4.77
2022-12-19T15:53:52.577Z,1.73
2022-12-19T15:56:25.224Z,3.60
2022-12-19T15:58:52.397Z,1.67
2022-12-19T16:01:19.349Z,3.37
2022-12-19T16:03:46.334Z,4.00
2022-12-19T16:06:13.971Z,3.13
2022-12-19T16:08:40.800Z,4.50
2022-12-19T16:11:15.616Z,3.93
2022-12-19T16:13:44.250Z,4.20
2022-12-19T16:16:15.495Z,2.67
2022-12-19T16:18:42.785Z,1.73
2022-12-19T16:21:22.587Z,9.10
2022-12-19T16:23:51.855Z,4.03
2022-12-19T16:26:26.720Z,3.07
2022-12-19T16:28:53.363Z,2.33
2022-12-19T16:31:23.233Z,6.00
2022-12-19T16:33:49.962Z,14.17
2022-12-19T16:36:16.913Z,2.10
2022-12-19T16:38:43.435Z,2.70
2022-12-19T16:41:14.468Z,2.13
2022-12-19T16:43:42.246Z,4.77
2022-12-19T16:46:12.741Z,3.27
2022-12-19T16:48:39.297Z,3.77
2022-12-19T16:51:16.330Z,5.10
2022-12-19T16:53:42.906Z,4.73
2022-12-19T16:56:18.227Z,2.40
2022-12-19T16:58:45.076Z,5.77
2022-12-19T17:01:11.838Z,5.30
2022-12-19T17:03:41.507Z,4.87
2022-12-19T17:06:11.265Z,2.40
2022-12-19T17:08:38.027Z,2.60
2022-12-19T17:11:05.175Z,5.13
2022-12-19T17:13:31.816Z,2.30
2022-12-19T17:15:58.428Z,2.23
2022-12-19T17:18:25.074Z,3.53
2022-12-19T17:20:52.736Z,15.83
2022-12-19T17:23:23.476Z,3.93
2022-12-19T17:25:50.542Z,2.10
2022-12-19T17:28:17.496Z,1.97
2022-12-19T17:30:47.960Z,4.07
2022-12-19T17:33:15.523Z,4.57
2022-12-19T17:35:42.815Z,4.20
2022-12-19T17:38:12.471Z,2.53
2022-12-19T17:40:39.047Z,5.23
2022-12-19T17:43:05.620Z,2.50
2022-12-19T17:45:33.166Z,3.00
2022-12-19T17:48:04.622Z,2.40
2022-12-19T17:50:34.615Z,5.03
2022-12-19T17:53:01.369Z,3.67
2022-12-19T17:55:29.355Z,4.43
2022-12-19T17:57:56.715Z,8.00
2022-12-19T18:00:30.428Z,4.33
2022-12-19T18:03:00.105Z,4.73
2022-12-19T18:05:34.447Z,4.07
2022-12-19T18:08:01.467Z,2.83
2022-12-19T18:10:29.212Z,2.20
2022-12-19T18:12:56.196Z,5.77
2022-12-19T18:15:23.831Z,1.60
2022-12-19T18:17:51.631Z,2.47
2022-12-19T18:20:30.886Z,1.57
2022-12-19T18:22:58.844Z,3.30
2022-12-19T18:25:31.061Z,11.57
2022-12-19T18:27:58.201Z,2.77
2022-12-19T18:30:25.841Z,3.50
2022-12-19T18:32:53.627Z,4.43
2022-12-19T18:35:21.624Z,6.03
2022-12-19T18:37:49.755Z,1.77
2022-12-19T18:40:26.014Z,1.60
2022-12-19T18:42:56.040Z,2.57
2022-12-19T18:45:25.924Z,2.53
2022-12-19T18:47:54.482Z,1.80
2022-12-19T18:50:22.552Z,3.37
2022-12-19T18:52:49.872Z,4.67
2022-12-19T18:55:17.603Z,2.40
2022-12-19T18:57:45.404Z,3.47
2022-12-19T19:00:17.120Z,4.27
2022-12-19T19:02:53.490Z,3.27
2022-12-19T19:05:22.052Z,3.60
2022-12-19T19:07:48.938Z,3.20
2022-12-19T19:10:21.860Z,2.60
2022-12-19T19:13:21.190Z,8.73
2022-12-19T19:15:47.759Z,2.70
2022-12-19T19:18:16.202Z,4.47
2022-12-19T19:20:44.551Z,2.17
2022-12-19T19:23:12.600Z,5.10
2022-12-19T19:25:39.270Z,10.50
2022-12-19T19:28:06.682Z,4.73
2022-12-19T19:30:34.518Z,3.60
2022-12-19T19:33:04.893Z,5.90
2022-12-19T19:35:31.500Z,3.60
2022-12-19T19:38:00.461Z,3.90
2022-12-19T19:40:27.063Z,3.97
2022-12-19T19:42:53.637Z,2.13
2022-12-19T19:45:20.230Z,2.93
2022-12-19T19:47:46.760Z,3.30
2022-12-19T19:50:13.383Z,4.83
2022-12-19T19:52:40.299Z,2.27
2022-12-19T19:55:07.849Z,2.60
2022-12-19T19:57:34.806Z,3.67
2022-12-19T20:00:01.489Z,1.50
2022-12-19T20:02:28.444Z,6.40
2022-12-19T20:04:55.079Z,2.40
2022-12-19T20:07:21.628Z,3.80
2022-12-19T20:09:48.251Z,1.53
2022-12-19T20:12:15.352Z,9.00
2022-12-19T20:14:41.985Z,2.10
2022-12-19T20:17:08.566Z,1.73
2022-12-19T20:19:35.353Z,3.67
2022-12-19T20:22:02.060Z,3.13
2022-12-19T20:24:28.693Z,2.90
2022-12-19T20:26:55.441Z,2.07
2022-12-19T20:29:22.347Z,5.80
2022-12-19T20:31:49.018Z,1.93
2022-12-19T20:34:16.201Z,2.90
2022-12-19T20:36:42.995Z,3.40
2022-12-19T20:39:09.625Z,2.23
2022-12-19T20:41:36.330Z,3.87
2022-12-19T20:44:03.235Z,7.93
2022-12-19T20:46:30.278Z,1.80
2022-12-19T20:48:57.441Z,1.50
2022-12-19T20:51:24.073Z,3.37
2022-12-19T20:53:54.911Z,7.30
2022-12-19T20:56:23.425Z,2.47
2022-12-19T20:58:50.688Z,2.70
2022-12-19T21:01:21.834Z,2.33
2022-12-19T21:03:49.143Z,1.70
2022-12-19T21:06:17.239Z,1.53
2022-12-19T21:08:44.808Z,1.73
2022-12-19T21:11:12.048Z,6.73
2022-12-19T21:13:39.162Z,2.90
2022-12-19T21:16:08.547Z,3.27
2022-12-19T21:18:36.546Z,2.50
2022-12-19T21:21:03.500Z,4.60
2022-12-19T21:23:30.205Z,4.43
2022-12-19T21:25:57.846Z,1.90
2022-12-19T21:28:25.058Z,2.40
2022-12-19T21:30:55.828Z,1.70
2022-12-19T21:33:23.158Z,1.93
2022-12-19T21:35:49.703Z,2.53
2022-12-19T21:38:16.272Z,5.00
2022-12-19T21:40:42.886Z,2.57
2022-12-19T21:43:12.082Z,1.50
2022-12-19T21:45:39.702Z,1.80
2022-12-19T21:48:06.343Z,1.90
2022-12-19T21:50:34.036Z,0.80
2022-12-19T21:53:01.346Z,10.50
2022-12-19T21:55:28.062Z,1.77
2022-12-19T21:57:54.637Z,2.20
2022-12-19T22:00:21.290Z,5.30
2022-12-19T22:03:11.945Z,1.63
2022-12-19T22:05:35.222Z,3.23
2022-12-19T22:08:01.795Z,3.57
2022-12-19T22:10:28.429Z,2.37
2022-12-19T22:12:55.071Z,2.23
2022-12-19T22:15:21.590Z,3.27
2022-12-19T22:17:48.163Z,4.07
2022-12-19T22:20:15.535Z,2.23
2022-12-19T22:22:42.146Z,1.60
2022-12-19T22:25:08.994Z,3.20
2022-12-19T22:27:35.757Z,2.60
2022-12-19T22:30:08.692Z,1.57
2022-12-19T22:32:37.774Z,2.20
2022-12-19T22:35:04.756Z,2.60
2022-12-19T22:37:31.576Z,2.50
2022-12-19T22:40:00.591Z,3.40
2022-12-19T22:42:27.892Z,1.17
2022-12-19T22:44:55.158Z,2.60
2022-12-19T22:47:21.974Z,1.47
2022-12-19T22:49:50.565Z,1.83
2022-12-19T22:52:17.282Z,4.43
2022-12-19T22:54:43.799Z,3.47
2022-12-19T22:57:10.467Z,1.37
2022-12-19T22:59:37.058Z,1.93
2022-12-19T23:02:03.933Z,4.73
2022-12-19T23:04:30.840Z,1.23
2022-12-19T23:06:57.570Z,3.00
2022-12-19T23:09:24.233Z,1.67
2022-12-19T23:11:50.902Z,2.00
2022-12-19T23:14:18.426Z,1.27
2022-12-19T23:16:45.218Z,1.53
2022-12-19T23:19:12.737Z,6.43
2022-12-19T23:21:39.403Z,1.30
2022-12-19T23:24:06.333Z,5.10
2022-12-19T23:26:34.215Z,1.80
2022-12-19T23:29:07.212Z,2.13
2022-12-19T23:31:34.420Z,1.00
2022-12-19T23:34:01.220Z,3.30
2022-12-19T23:37:08.462Z,1.20
2022-12-19T23:39:14.549Z,1.33
2022-12-19T23:41:41.215Z,3.27
2022-12-19T23:44:08.771Z,2.50
2022-12-19T23:46:35.357Z,2.13
2022-12-19T23:49:01.882Z,2.70
2022-12-19T23:51:28.688Z,2.40
2022-12-19T23:53:56.084Z,2.20
2022-12-19T23:56:27.292Z,3.23
2022-12-19T23:58:54.130Z,2.13
